Boultons Beach, New York
Current Conditions -  °F | °C
As of 8:56 PM on Saturday 25 Oct 2014 (Local Time) from KART Reporting Station
Overcast Overcast  
Wind Chill: 57°   Ceiling: 6000
Heat Index: 57°   Visibility: 8mi
Dew Point: 49°   Wind: 10mph
Humidity: 74%   Direction: 240°WSW
Pressure: 29.55"   Gusts: NA
Location:  43.9321°N, 76.0832°W
Report Text: KART 260056Z AUTO 24009KT 8SM BKN060 OVC080 14/09 A2955 RMK AO2 SLP004 T01390094
Loading
Personal Weather Stations






























Interactive Weather Map New forecast layout! Learn more

10-Day Weather Forecast

Advertisements
Track Severe Weather on mobile